Time;durP1;ratioP1;P1;durP2;ratioP2;P2;SDS_P1;SDS_P2;PMS_P1;PMS_P2;Temp;Humidity;BMP_temperature;BMP_pressure;BME280_temperature;BME280_humidity;BME280_pressure;Samples;Min_cycle;Max_cycle;Signal;HPM_P1;HPM_P2
2023/09/07 00:01:06;;;;;;;14.27;7.72;;;;;;;20.90;61.17;95087.34;4188032;28;20445;-74
2023/09/07 00:03:08;;;;;;;11.88;8.00;;;;;;;20.89;61.33;95084.91;4190219;28;20076;-75
2023/09/07 00:05:10;;;;;;;11.77;8.10;;;;;;;20.87;61.23;95087.81;4192728;28;20135;-75
2023/09/07 00:07:12;;;;;;;10.85;7.93;;;;;;;20.86;61.56;95080.81;4179947;28;20049;-74
2023/09/07 00:09:15;;;;;;;11.93;8.45;;;;;;;20.86;61.41;95083.50;4187025;28;20132;-75
2023/09/07 00:11:17;;;;;;;11.20;8.10;;;;;;;20.84;61.35;95077.56;4191799;28;20478;-75
2023/09/07 00:13:19;;;;;;;9.77;7.93;;;;;;;20.83;61.58;95081.25;4181585;28;20148;-75
2023/09/07 00:15:21;;;;;;;10.15;8.15;;;;;;;20.80;61.36;95071.88;4183814;28;20160;-74
2023/09/07 00:17:24;;;;;;;13.13;8.60;;;;;;;20.75;61.61;95077.00;4193002;28;20349;-73
2023/09/07 00:19:26;;;;;;;11.03;8.60;;;;;;;20.73;61.93;95076.38;4175638;28;20045;-74
2023/09/07 00:21:27;;;;;;;10.02;7.90;;;;;;;20.73;62.07;95078.25;4193672;28;20105;-74
2023/09/07 00:23:30;;;;;;;9.63;7.90;;;;;;;20.68;62.06;95080.72;4182544;28;20400;-76
2023/09/07 00:25:32;;;;;;;10.63;8.57;;;;;;;20.68;62.38;95083.41;4194027;28;20068;-76
2023/09/07 00:27:34;;;;;;;12.40;8.52;;;;;;;20.62;62.53;95083.19;4193192;28;20056;-74
2023/09/07 00:29:35;;;;;;;9.98;7.95;;;;;;;20.61;62.44;95084.25;4192289;28;20068;-75
2023/09/07 00:31:37;;;;;;;13.63;9.55;;;;;;;20.63;62.51;95076.06;4173520;28;20279;-75
2023/09/07 00:33:39;;;;;;;11.25;9.20;;;;;;;20.60;62.56;95079.13;4187293;28;20126;-75
2023/09/07 00:35:41;;;;;;;13.15;8.40;;;;;;;20.57;62.83;95075.03;4174379;28;20051;-75
2023/09/07 00:37:43;;;;;;;9.98;8.68;;;;;;;20.59;62.85;95070.31;4192878;28;20052;-77
2023/09/07 00:39:44;;;;;;;9.52;8.50;;;;;;;20.59;62.97;95080.97;4191679;28;20202;-75
2023/09/07 00:41:46;;;;;;;12.75;8.82;;;;;;;20.60;63.13;95082.59;4194090;28;20127;-76
2023/09/07 00:43:48;;;;;;;11.48;8.00;;;;;;;20.62;62.93;95077.06;4194326;28;20114;-74
2023/09/07 00:45:50;;;;;;;10.07;8.55;;;;;;;20.63;62.98;95078.72;4170206;28;20049;-74
2023/09/07 00:47:52;;;;;;;13.52;9.38;;;;;;;20.60;63.27;95068.47;4171449;28;20476;-73
2023/09/07 00:49:54;;;;;;;10.80;8.88;;;;;;;20.59;63.26;95072.19;4173862;28;20542;-75
2023/09/07 00:51:57;;;;;;;10.75;9.30;;;;;;;20.53;63.72;95073.00;4193458;28;20051;-75
2023/09/07 00:53:59;;;;;;;12.25;9.52;;;;;;;20.52;63.66;95071.34;4172884;28;20171;-74
2023/09/07 00:56:01;;;;;;;10.48;9.07;;;;;;;20.49;63.75;95069.13;4192838;28;20080;-75
2023/09/07 00:58:04;;;;;;;11.63;9.13;;;;;;;20.41;64.12;95072.81;4191770;28;20099;-74
2023/09/07 01:00:07;;;;;;;10.75;9.60;;;;;;;20.35;64.19;95073.66;4192643;28;20143;-77
2023/09/07 01:02:09;;;;;;;12.02;9.80;;;;;;;20.32;64.35;95068.78;4193990;28;20126;-75
2023/09/07 01:04:11;;;;;;;12.90;10.00;;;;;;;20.33;64.25;95065.09;4192742;28;20475;-74
2023/09/07 01:06:26;;;;;;;13.15;9.98;;;;;;;20.22;64.58;95064.72;4192002;28;20126;-75
2023/09/07 01:08:42;;;;;;;11.32;10.15;;;;;;;20.22;64.86;95063.91;4168168;28;20049;-76
2023/09/07 01:10:44;;;;;;;12.93;11.50;;;;;;;20.21;64.87;95052.44;4174282;28;20056;-73
2023/09/07 01:12:46;;;;;;;16.90;11.40;;;;;;;20.23;64.84;95054.88;4192687;28;20132;-76
2023/09/07 01:14:48;;;;;;;14.48;11.15;;;;;;;20.24;64.99;95052.03;4184470;28;20380;-74
2023/09/07 01:16:50;;;;;;;14.20;12.48;;;;;;;20.27;65.19;95060.63;4188674;28;20144;-75
2023/09/07 01:18:52;;;;;;;16.73;12.07;;;;;;;20.30;65.09;95058.34;4189313;28;20049;-74
2023/09/07 01:20:55;;;;;;;14.52;11.65;;;;;;;20.29;65.13;95058.56;4176588;28;20053;-74
2023/09/07 01:22:57;;;;;;;13.60;12.30;;;;;;;20.28;65.17;95056.91;4175369;28;20056;-75
2023/09/07 01:25:01;;;;;;;14.68;12.07;;;;;;;20.17;65.50;95056.53;4175103;28;20053;-75
2023/09/07 01:27:03;;;;;;;14.38;12.75;;;;;;;20.07;66.01;95056.19;4203864;28;20545;-73
2023/09/07 01:29:08;;;;;;;14.02;12.48;;;;;;;20.08;65.99;95062.31;4196536;28;20137;-77
2023/09/07 01:31:10;;;;;;;13.88;12.32;;;;;;;20.09;65.81;95053.28;4179991;28;20053;-75
2023/09/07 01:33:12;;;;;;;13.80;12.20;;;;;;;20.13;65.59;95059.81;4185225;28;20147;-74
2023/09/07 01:35:16;;;;;;;15.25;12.60;;;;;;;20.16;65.66;95064.75;4183109;28;20161;-74
2023/09/07 01:37:18;;;;;;;16.55;12.65;;;;;;;20.21;65.32;95057.75;4175035;28;20395;-75
2023/09/07 01:39:22;;;;;;;13.50;12.15;;;;;;;20.21;65.30;95055.09;4190855;28;20048;-75
2023/09/07 01:41:23;;;;;;;16.63;11.70;;;;;;;20.20;65.40;95057.97;4192577;28;20052;-74
2023/09/07 01:43:26;;;;;;;13.30;12.02;;;;;;;20.11;65.72;95060.06;4186873;28;20045;-74
2023/09/07 01:45:27;;;;;;;13.88;12.15;;;;;;;20.12;65.96;95063.53;4185575;28;20084;-74
2023/09/07 01:47:29;;;;;;;16.15;11.68;;;;;;;20.13;65.98;95059.81;4183610;28;20047;-75
2023/09/07 01:49:32;;;;;;;13.85;12.45;;;;;;;20.15;65.89;95063.09;4198425;28;20128;-75
2023/09/07 01:51:34;;;;;;;15.07;12.50;;;;;;;20.06;66.45;95059.84;4176419;28;20057;-74
2023/09/07 01:53:36;;;;;;;15.15;12.75;;;;;;;19.86;66.88;95065.22;4177770;28;20411;-76
2023/09/07 01:55:39;;;;;;;15.68;12.35;;;;;;;19.87;67.02;95066.84;4197910;28;20056;-73
2023/09/07 01:57:41;;;;;;;18.27;11.88;;;;;;;19.92;66.99;95067.06;4195748;28;20215;-74
2023/09/07 01:59:43;;;;;;;18.55;12.57;;;;;;;19.92;66.93;95067.06;4195012;28;20055;-74
2023/09/07 02:01:44;;;;;;;16.77;12.00;;;;;;;19.92;67.04;95061.75;4192173;28;20099;-74
2023/09/07 02:03:46;;;;;;;14.18;12.40;;;;;;;19.93;66.96;95066.00;4184214;28;20429;-74
2023/09/07 02:05:48;;;;;;;14.68;13.25;;;;;;;19.91;66.53;95067.25;4169295;28;20053;-74
2023/09/07 02:07:50;;;;;;;17.55;13.05;;;;;;;19.88;66.75;95063.19;4179834;28;20048;-74
2023/09/07 02:09:51;;;;;;;16.20;13.27;;;;;;;19.87;66.98;95064.19;4195238;28;20052;-74
2023/09/07 02:11:54;;;;;;;15.25;13.65;;;;;;;19.87;67.00;95066.03;4205961;28;20119;-73
2023/09/07 02:13:55;;;;;;;15.15;13.55;;;;;;;19.83;67.23;95062.97;4193059;28;20087;-75
2023/09/07 02:15:57;;;;;;;14.32;12.93;;;;;;;19.86;67.51;95064.41;4190274;28;20411;-74
2023/09/07 02:17:59;;;;;;;15.32;13.10;;;;;;;19.87;67.51;95066.84;4186693;28;20044;-75
2023/09/07 02:20:04;;;;;;;15.80;12.65;;;;;;;19.83;67.86;95066.47;4189248;28;20041;-76
2023/09/07 02:22:09;;;;;;;19.33;13.10;;;;;;;19.81;67.90;95062.34;4178378;28;20106;-75
2023/09/07 02:24:11;;;;;;;14.93;13.02;;;;;;;19.81;68.05;95068.50;4190133;28;20056;-74
2023/09/07 02:26:12;;;;;;;15.82;13.20;;;;;;;19.81;68.29;95071.16;4182720;28;20519;-76
2023/09/07 02:28:14;;;;;;;16.23;13.63;;;;;;;19.83;68.13;95069.13;4181106;28;20049;-74
2023/09/07 02:30:16;;;;;;;15.88;13.77;;;;;;;19.83;67.86;95071.78;4175860;28;20103;-75
2023/09/07 02:32:18;;;;;;;15.20;13.52;;;;;;;19.76;68.13;95078.94;4195894;28;20056;-75
2023/09/07 02:34:20;;;;;;;16.15;14.43;;;;;;;19.69;68.27;95072.78;4180365;28;20135;-74
2023/09/07 02:36:22;;;;;;;15.82;13.70;;;;;;;19.77;68.10;95071.78;4176687;28;20408;-75
2023/09/07 02:38:24;;;;;;;16.42;14.68;;;;;;;19.74;67.93;95067.69;4194991;28;20047;-76
2023/09/07 02:40:26;;;;;;;15.68;14.07;;;;;;;19.74;67.90;95072.19;4190159;28;20045;-75
2023/09/07 02:42:27;;;;;;;17.40;14.50;;;;;;;19.73;68.06;95076.69;4187822;28;20250;-74
2023/09/07 02:44:29;;;;;;;15.55;13.85;;;;;;;19.72;67.87;95082.22;4186949;28;20479;-76
2023/09/07 02:46:31;;;;;;;16.63;13.57;;;;;;;19.75;67.95;95085.28;4185340;28;20049;-76
2023/09/07 02:48:33;;;;;;;16.90;14.45;;;;;;;19.74;68.04;95083.63;4188462;28;20099;-75
2023/09/07 02:51:01;;;;;;;16.63;14.80;;;;;;;19.75;68.05;95087.13;4183217;28;20479;-73
2023/09/07 02:53:04;;;;;;;19.05;14.80;;;;;;;19.76;67.69;95075.47;4179112;28;20053;-74
2023/09/07 02:55:06;;;;;;;18.75;14.07;;;;;;;19.76;68.11;95083.44;4197555;28;20139;-75
2023/09/07 02:57:08;;;;;;;16.77;14.27;;;;;;;19.75;68.09;95079.16;4195807;28;20051;-74
2023/09/07 02:59:09;;;;;;;18.40;14.68;;;;;;;19.80;67.99;95080.16;4194273;28;20749;-75
2023/09/07 03:01:13;;;;;;;20.42;14.00;;;;;;;19.77;68.01;95077.09;4195591;28;20101;-72
2023/09/07 03:03:15;;;;;;;16.05;14.32;;;;;;;19.80;68.07;95080.16;4168272;28;20065;-75
2023/09/07 03:05:17;;;;;;;16.92;14.43;;;;;;;19.80;68.00;95082.81;4194797;28;20455;-76
2023/09/07 03:07:19;;;;;;;16.88;15.13;;;;;;;19.84;67.92;95080.56;4182139;28;20045;-76
2023/09/07 03:09:21;;;;;;;16.20;14.43;;;;;;;19.75;68.26;95082.63;4184106;28;20045;-76
2023/09/07 03:11:23;;;;;;;15.85;14.13;;;;;;;19.76;68.17;95081.59;4191707;28;20059;-76
2023/09/07 03:13:25;;;;;;;17.45;15.68;;;;;;;19.75;68.29;95081.81;4192396;28;20119;-76
2023/09/07 03:15:27;;;;;;;17.00;14.88;;;;;;;19.72;68.57;95077.69;4184310;28;20476;-75
2023/09/07 03:17:29;;;;;;;17.45;15.57;;;;;;;19.63;68.74;95074.41;4193597;28;20056;-73
2023/09/07 03:19:31;;;;;;;18.30;16.33;;;;;;;19.61;68.73;95073.00;4175465;28;20052;-73
2023/09/07 03:21:33;;;;;;;19.25;16.10;;;;;;;19.49;69.52;95085.25;4198345;28;20057;-74
2023/09/07 03:24:08;;;;;;;19.42;17.40;;;;;;;19.48;69.77;95083.63;4199475;28;20450;-75
2023/09/07 03:26:10;;;;;;;20.48;18.33;;;;;;;19.49;69.80;95078.13;4191669;28;20395;-74
2023/09/07 03:28:12;;;;;;;19.50;17.50;;;;;;;19.52;69.67;95083.00;4178678;28;20053;-77
2023/09/07 03:30:14;;;;;;;20.90;17.25;;;;;;;19.57;69.77;95079.72;4183367;28;20049;-76
2023/09/07 03:32:15;;;;;;;22.27;18.05;;;;;;;19.59;69.80;95086.47;4186732;28;20128;-75
2023/09/07 03:34:17;;;;;;;20.80;18.10;;;;;;;19.51;69.87;95078.72;4184956;28;20125;-76
2023/09/07 03:36:19;;;;;;;20.25;17.45;;;;;;;19.48;70.36;95089.75;4184200;28;20049;-73
2023/09/07 03:38:21;;;;;;;22.27;18.77;;;;;;;19.46;70.62;95091.00;4197253;28;20037;-75
2023/09/07 03:40:23;;;;;;;20.92;18.80;;;;;;;19.48;70.46;95092.41;4179346;28;20045;-76
2023/09/07 03:42:24;;;;;;;21.95;18.90;;;;;;;19.47;70.78;95093.44;4187666;28;20045;-73
2023/09/07 03:44:26;;;;;;;21.23;18.70;;;;;;;19.49;70.65;95090.56;4193283;28;20147;-75
2023/09/07 03:46:28;;;;;;;20.60;18.52;;;;;;;19.37;71.09;95085.06;4184986;28;20044;-74
2023/09/07 03:48:29;;;;;;;21.02;18.83;;;;;;;19.40;71.35;95088.13;4170714;28;20471;-74
2023/09/07 03:50:31;;;;;;;20.85;17.85;;;;;;;19.33;71.30;95094.47;4187408;28;20342;-76
2023/09/07 03:52:33;;;;;;;22.90;18.25;;;;;;;19.36;71.87;95096.69;4191044;28;20056;-73
2023/09/07 03:54:36;;;;;;;24.05;19.85;;;;;;;19.25;72.35;95100.78;4194570;28;20187;-75
2023/09/07 03:56:39;;;;;;;24.13;19.77;;;;;;;19.22;72.66;95104.66;4195261;28;20051;-75
2023/09/07 03:58:41;;;;;;;22.58;19.95;;;;;;;19.26;72.58;95110.41;4185111;28;20084;-76
2023/09/07 04:00:44;;;;;;;20.98;18.77;;;;;;;19.28;72.89;95108.34;4169841;28;20041;-75
2023/09/07 04:02:47;;;;;;;22.03;19.60;;;;;;;19.26;72.96;95112.25;4196092;28;20143;-73
2023/09/07 04:04:50;;;;;;;23.15;19.60;;;;;;;19.29;72.73;95111.81;4186599;28;20306;-77
2023/09/07 04:06:52;;;;;;;21.85;19.48;;;;;;;19.30;73.10;95108.97;4193079;28;20064;-75
2023/09/07 04:08:54;;;;;;;21.02;18.92;;;;;;;19.27;72.97;95111.19;4194902;28;20045;-75
2023/09/07 04:10:56;;;;;;;23.83;19.13;;;;;;;19.22;73.04;95107.31;4186875;28;20068;-75
2023/09/07 04:12:57;;;;;;;23.50;18.98;;;;;;;19.21;73.38;95110.19;4174301;28;20056;-76
2023/09/07 04:15:02;;;;;;;21.80;19.35;;;;;;;19.20;73.46;95112.00;4180112;28;20466;-77
2023/09/07 04:17:05;;;;;;;22.10;18.98;;;;;;;19.21;73.43;95105.69;4194177;28;20064;-75
2023/09/07 04:19:07;;;;;;;21.20;18.83;;;;;;;19.24;73.63;95110.59;4187998;28;20059;-77
2023/09/07 04:21:09;;;;;;;21.77;19.17;;;;;;;19.29;73.38;95103.84;4193810;28;20055;-75
2023/09/07 04:23:10;;;;;;;19.67;17.67;;;;;;;19.28;73.65;95102.22;4194323;28;20044;-77
2023/09/07 04:25:12;;;;;;;21.35;19.25;;;;;;;19.28;73.70;95110.19;4194806;28;20055;-76
2023/09/07 04:27:14;;;;;;;20.80;18.60;;;;;;;19.20;73.75;95106.69;4194671;28;20067;-75
2023/09/07 04:29:16;;;;;;;21.45;18.35;;;;;;;19.18;73.98;95100.78;4180756;28;20060;-74
2023/09/07 04:31:18;;;;;;;21.60;19.23;;;;;;;19.21;74.17;95102.22;4181465;28;20052;-74
2023/09/07 04:33:20;;;;;;;22.10;19.98;;;;;;;19.15;74.21;95098.53;4186725;28;20044;-76
2023/09/07 04:35:28;;;;;;;22.05;19.35;;;;;;;19.03;75.00;95106.25;4181502;28;20480;-75
2023/09/07 04:37:30;;;;;;;24.10;18.27;;;;;;;19.02;74.66;95106.47;4184572;28;20063;-74
2023/09/07 04:39:32;;;;;;;21.42;19.17;;;;;;;19.11;74.63;95107.09;4199864;28;20181;-74
2023/09/07 04:41:33;;;;;;;23.77;18.88;;;;;;;19.11;74.15;95115.88;4195865;28;20056;-75
2023/09/07 04:43:35;;;;;;;22.17;18.77;;;;;;;19.13;74.46;95113.84;4194225;28;20094;-76
2023/09/07 04:45:45;;;;;;;21.45;19.17;;;;;;;19.21;74.15;95111.00;4170163;28;20048;-74
2023/09/07 04:47:47;;;;;;;20.80;18.60;;;;;;;19.20;73.62;95119.97;4191002;28;20079;-75
2023/09/07 04:49:52;;;;;;;21.75;19.42;;;;;;;19.24;73.92;95117.75;4182959;28;20115;-75
2023/09/07 04:51:54;;;;;;;22.58;18.48;;;;;;;19.17;73.81;95115.09;4186252;28;20463;-75
2023/09/07 04:53:56;;;;;;;21.70;19.17;;;;;;;19.22;73.82;95115.28;4169182;28;20143;-75
2023/09/07 04:56:10;;;;;;;23.75;20.73;;;;;;;19.24;73.53;95115.91;4186695;28;20486;-76
2023/09/07 04:58:12;;;;;;;25.75;19.42;;;;;;;19.30;73.11;95119.59;4189813;28;20076;-75
2023/09/07 05:00:14;;;;;;;21.13;18.95;;;;;;;19.29;72.78;95127.75;4185940;28;20064;-76
2023/09/07 05:02:44;;;;;;;20.98;18.75;;;;;;;19.25;73.14;95127.34;4192036;28;20131;-77
2023/09/07 05:04:46;;;;;;;19.95;17.70;;;;;;;19.28;72.56;95124.28;4190460;28;20102;-75
2023/09/07 05:06:47;;;;;;;26.27;19.30;;;;;;;19.32;72.53;95124.72;4160904;28;20547;-76
2023/09/07 05:08:49;;;;;;;19.98;17.83;;;;;;;19.37;72.24;95119.59;4192546;28;20102;-75
2023/09/07 05:10:56;;;;;;;20.35;17.63;;;;;;;19.41;72.17;95123.50;4190968;28;20075;-76
2023/09/07 05:12:59;;;;;;;21.02;18.10;;;;;;;19.44;71.82;95115.09;4190713;28;20063;-76
2023/09/07 05:15:01;;;;;;;23.55;17.90;;;;;;;19.48;71.55;95121.63;4193446;28;20066;-76
2023/09/07 05:17:02;;;;;;;24.90;17.25;;;;;;;19.47;71.43;95122.69;4172361;28;20138;-76
2023/09/07 05:19:04;;;;;;;24.05;17.90;;;;;;;19.45;71.37;95127.38;4191805;28;20043;-75
2023/09/07 05:21:13;;;;;;;19.15;16.98;;;;;;;19.40;71.58;95129.81;4187337;28;20049;-76
2023/09/07 05:23:19;;;;;;;20.48;18.38;;;;;;;19.46;71.63;95128.19;4190202;28;20500;-77
2023/09/07 05:25:20;;;;;;;21.55;18.05;;;;;;;19.48;71.75;95136.78;4175833;28;20532;-76
2023/09/07 05:27:22;;;;;;;21.70;18.08;;;;;;;19.50;71.86;95140.03;4190235;28;20240;-75
2023/09/07 05:29:24;;;;;;;20.67;18.17;;;;;;;19.54;71.92;95136.78;4161903;28;20049;-75
2023/09/07 05:31:26;;;;;;;22.30;18.27;;;;;;;19.58;71.89;95137.19;4183026;28;20135;-74
2023/09/07 05:33:28;;;;;;;21.50;18.52;;;;;;;19.57;72.16;95135.53;4190663;28;20521;-75
2023/09/07 05:35:32;;;;;;;27.20;19.70;;;;;;;19.50;72.35;95130.22;4179580;28;20073;-77
2023/09/07 05:37:33;;;;;;;26.23;18.67;;;;;;;19.51;72.74;95131.03;4195007;28;20049;-79
2023/09/07 05:39:38;;;;;;;23.77;18.48;;;;;;;19.57;72.35;95136.34;4201656;28;20056;-78
2023/09/07 05:41:40;;;;;;;22.85;17.90;;;;;;;19.63;72.04;95132.88;4190574;28;20049;-75
2023/09/07 05:43:41;;;;;;;19.83;17.77;;;;;;;19.58;72.21;95137.19;4196304;28;20044;-77
2023/09/07 05:45:43;;;;;;;22.80;17.83;;;;;;;19.52;72.22;95133.50;4186240;28;20144;-76
2023/09/07 05:47:45;;;;;;;22.98;18.45;;;;;;;19.53;72.47;95137.81;4188114;28;20056;-77
2023/09/07 05:49:47;;;;;;;18.70;16.80;;;;;;;19.57;71.79;95135.53;4187822;28;20132;-78
2023/09/07 05:51:49;;;;;;;20.88;17.00;;;;;;;19.61;71.54;95137.59;4185399;28;20125;-75
2023/09/07 05:53:50;;;;;;;18.75;16.88;;;;;;;19.63;71.46;95140.84;4188268;28;20147;-75
2023/09/07 05:55:52;;;;;;;21.17;16.17;;;;;;;19.64;70.82;95134.53;4193426;28;20565;-76
2023/09/07 05:57:54;;;;;;;20.80;17.83;;;;;;;19.62;70.87;95133.91;4189484;28;20053;-75
2023/09/07 05:59:56;;;;;;;23.17;16.63;;;;;;;19.72;70.65;95144.16;4189416;28;20053;-76
2023/09/07 06:01:59;;;;;;;19.83;17.73;;;;;;;19.81;70.36;95129.66;4194340;28;20049;-76
2023/09/07 06:04:00;;;;;;;18.80;15.50;;;;;;;19.84;69.83;95142.53;4160015;28;20057;-75
2023/09/07 06:06:02;;;;;;;18.85;15.85;;;;;;;19.81;69.57;95139.44;4171353;28;20055;-77
2023/09/07 06:08:06;;;;;;;18.27;15.30;;;;;;;19.87;69.57;95138.63;4170857;28;20128;-76
2023/09/07 06:10:08;;;;;;;22.02;15.10;;;;;;;19.95;69.48;95145.59;4181516;28;20055;-78
2023/09/07 06:12:09;;;;;;;17.30;15.43;;;;;;;20.14;68.86;95141.28;4196876;28;20053;-74
2023/09/07 06:14:11;;;;;;;20.75;14.55;;;;;;;20.26;68.38;95144.91;4177744;28;20057;-78
2023/09/07 06:16:13;;;;;;;19.70;15.75;;;;;;;20.36;67.69;95137.31;4188649;28;20054;-74
2023/09/07 06:18:15;;;;;;;19.13;13.60;;;;;;;20.53;66.99;95134.19;4186781;28;20123;-76
2023/09/07 06:20:19;;;;;;;17.05;12.88;;;;;;;20.70;66.23;95135.41;4195803;28;20466;-77
2023/09/07 06:22:20;;;;;;;18.58;15.30;;;;;;;20.80;65.93;95138.44;4198071;28;20063;-78
2023/09/07 06:24:22;;;;;;;16.98;13.57;;;;;;;20.85;65.58;95138.59;4187447;28;20060;-77
2023/09/07 06:26:25;;;;;;;18.45;13.95;;;;;;;21.01;65.03;95139.94;4196986;28;20475;-77
2023/09/07 06:28:27;;;;;;;18.38;12.98;;;;;;;21.16;64.08;95139.66;4195592;28;20051;-78
2023/09/07 06:30:29;;;;;;;18.63;13.10;;;;;;;21.33;63.51;95145.28;4186774;28;20131;-76
2023/09/07 06:32:30;;;;;;;17.67;13.55;;;;;;;21.44;63.51;95139.28;4174604;28;20118;-76
2023/09/07 06:34:32;;;;;;;15.10;12.10;;;;;;;21.54;62.68;95138.03;4181540;28;20049;-76
2023/09/07 06:36:34;;;;;;;16.85;11.52;;;;;;;21.56;62.41;95144.75;4196530;28;20180;-76
2023/09/07 06:38:48;;;;;;;14.10;11.63;;;;;;;21.61;61.77;95150.25;4169361;28;20053;-77
2023/09/07 06:40:50;;;;;;;13.25;10.60;;;;;;;21.73;61.21;95152.25;4195293;28;20056;-77
2023/09/07 06:42:53;;;;;;;12.82;10.07;;;;;;;21.91;60.41;95152.28;4190908;28;20056;-77
2023/09/07 06:44:54;;;;;;;13.13;9.87;;;;;;;21.96;60.07;95149.78;4186453;28;20072;-78
2023/09/07 06:46:56;;;;;;;13.10;9.60;;;;;;;22.00;58.95;95153.63;4181176;28;20465;-76
2023/09/07 06:48:58;;;;;;;17.13;10.30;;;;;;;22.18;58.39;95149.38;4183693;28;20048;-76
2023/09/07 06:51:03;;;;;;;16.90;9.57;;;;;;;22.19;58.70;95149.13;4189856;28;20064;-76
2023/09/07 06:53:06;;;;;;;18.55;11.20;;;;;;;22.35;58.07;95153.13;4173633;28;20380;-76
2023/09/07 06:55:08;;;;;;;13.52;10.20;;;;;;;22.47;57.68;95161.22;4194121;28;20064;-76
2023/09/07 06:57:09;;;;;;;16.15;9.52;;;;;;;22.42;57.38;95155.72;4191344;28;20504;-78
2023/09/07 06:59:11;;;;;;;15.45;8.73;;;;;;;22.35;56.82;95155.81;4186741;28;20053;-76
2023/09/07 07:01:13;;;;;;;13.52;8.77;;;;;;;22.49;56.94;95146.59;4196174;28;20060;-76
2023/09/07 07:03:15;;;;;;;13.77;9.02;;;;;;;22.47;56.24;95154.00;4193374;28;20056;-76
2023/09/07 07:05:17;;;;;;;14.30;8.75;;;;;;;22.45;56.31;95153.41;4194128;28;20057;-76
2023/09/07 07:07:20;;;;;;;11.45;9.15;;;;;;;22.14;56.32;95145.50;4177044;28;20048;-76
2023/09/07 07:09:22;;;;;;;15.27;8.93;;;;;;;21.95;56.93;95147.31;4187489;28;20111;-74
2023/09/07 07:11:23;;;;;;;14.15;8.95;;;;;;;21.84;57.78;95143.53;4176670;28;20045;-76
2023/09/07 07:13:25;;;;;;;10.68;9.57;;;;;;;21.80;58.47;95153.78;4186996;28;20075;-76
2023/09/07 07:15:27;;;;;;;12.43;9.57;;;;;;;21.76;58.26;95146.47;4191252;28;20115;-77
2023/09/07 07:17:29;;;;;;;10.77;9.00;;;;;;;21.82;58.06;95150.91;4184006;28;20103;-77
2023/09/07 07:19:31;;;;;;;9.85;8.88;;;;;;;21.90;57.81;95158.66;4192484;28;20044;-76
2023/09/07 07:21:33;;;;;;;13.25;9.50;;;;;;;22.08;57.44;95148.00;4184124;28;20094;-75
2023/09/07 07:23:36;;;;;;;11.52;9.07;;;;;;;21.97;57.46;95150.59;4194415;28;20063;-78
2023/09/07 07:25:38;;;;;;;15.32;9.65;;;;;;;22.27;57.39;95161.41;4187991;28;20045;-77
2023/09/07 07:27:40;;;;;;;13.80;10.52;;;;;;;22.40;56.68;95165.81;4176139;28;20060;-76
2023/09/07 07:29:42;;;;;;;12.05;9.27;;;;;;;22.62;56.27;95172.34;4196129;28;20083;-75
2023/09/07 07:31:44;;;;;;;15.77;8.70;;;;;;;22.59;55.58;95172.78;4196053;28;20131;-78
2023/09/07 07:33:48;;;;;;;14.07;8.80;;;;;;;22.63;55.54;95167.84;4194893;28;20045;-76
2023/09/07 07:35:49;;;;;;;14.38;9.50;;;;;;;22.69;55.68;95178.44;4182705;28;20098;-79
2023/09/07 07:37:51;;;;;;;13.43;8.45;;;;;;;22.77;54.64;95177.31;4201013;28;20052;-78
2023/09/07 07:39:53;;;;;;;13.00;8.75;;;;;;;22.80;55.09;95168.03;4196463;28;20055;-76
2023/09/07 07:41:55;;;;;;;14.50;8.40;;;;;;;22.64;54.91;95177.47;4195454;28;20071;-74
2023/09/07 07:43:57;;;;;;;12.57;8.75;;;;;;;22.56;54.76;95175.88;4175089;28;20360;-77
2023/09/07 07:45:59;;;;;;;9.88;8.40;;;;;;;22.43;55.34;95176.84;4175254;28;20063;-76
2023/09/07 07:48:01;;;;;;;10.70;8.48;;;;;;;22.49;55.42;95178.63;4192184;28;20149;-76
2023/09/07 07:50:04;;;;;;;11.88;9.18;;;;;;;22.57;56.07;95182.06;4191497;28;20052;-76
2023/09/07 07:52:05;;;;;;;15.10;9.13;;;;;;;22.68;55.95;95181.31;4195869;28;20400;-77
2023/09/07 07:54:07;;;;;;;13.05;9.05;;;;;;;22.82;55.43;95184.63;4172796;28;20449;-74
2023/09/07 07:56:16;;;;;;;16.15;8.52;;;;;;;22.92;55.14;95178.78;4184097;28;20282;-76
2023/09/07 07:58:18;;;;;;;13.27;9.15;;;;;;;22.93;55.54;95180.41;4177991;28;20057;-78
2023/09/07 08:00:20;;;;;;;8.80;7.90;;;;;;;22.95;55.34;95173.81;4194973;28;20048;-75
2023/09/07 08:02:22;;;;;;;11.07;8.52;;;;;;;23.07;54.86;95185.38;4195027;28;20051;-76
2023/09/07 08:04:24;;;;;;;14.07;8.85;;;;;;;23.13;54.28;95180.22;4177185;28;20049;-75
2023/09/07 08:06:25;;;;;;;13.98;8.60;;;;;;;23.19;54.13;95179.28;4195297;28;20052;-77
2023/09/07 08:08:27;;;;;;;11.35;8.00;;;;;;;23.30;53.93;95171.31;4196525;28;20053;-77
2023/09/07 08:10:29;;;;;;;9.05;7.82;;;;;;;23.40;53.83;95177.97;4184039;28;20045;-77
2023/09/07 08:12:33;;;;;;;12.32;8.77;;;;;;;23.42;54.06;95174.00;4183872;28;20045;-77
2023/09/07 08:14:35;;;;;;;14.02;8.60;;;;;;;23.40;53.03;95168.09;4190922;28;20055;-76
2023/09/07 08:16:37;;;;;;;11.20;9.60;;;;;;;23.30;52.85;95174.00;4207126;28;20500;-77
2023/09/07 08:18:40;;;;;;;13.13;7.85;;;;;;;23.30;52.23;95167.84;4196378;28;20116;-77
2023/09/07 08:20:42;;;;;;;15.33;7.60;;;;;;;23.28;52.32;95170.72;4196268;28;20052;-77
2023/09/07 08:22:45;;;;;;;12.27;8.73;;;;;;;23.19;53.00;95172.09;4186984;28;20460;-76
2023/09/07 08:24:48;;;;;;;13.32;8.35;;;;;;;23.33;52.40;95167.38;4194965;28;20361;-77
2023/09/07 08:26:50;;;;;;;16.85;7.80;;;;;;;23.45;51.90;95170.91;4178131;28;20060;-78
2023/09/07 08:28:52;;;;;;;9.63;7.82;;;;;;;23.54;51.51;95171.41;4195721;28;20041;-75
2023/09/07 08:30:54;;;;;;;10.27;8.45;;;;;;;23.63;51.53;95163.84;4164607;28;20050;-76
2023/09/07 08:32:57;;;;;;;11.73;7.72;;;;;;;23.78;51.12;95161.59;4191372;28;20076;-77
2023/09/07 08:35:00;;;;;;;13.17;7.80;;;;;;;23.91;50.58;95161.38;4169772;28;20054;-77
2023/09/07 08:37:05;;;;;;;;;;;;;;;23.93;50.65;95163.81;4190930;28;20083;-75
2023/09/07 08:39:09;;;;;;;;;;;;;;;24.07;50.15;95159.88;4177093;28;19944;-77
2023/09/07 08:41:11;;;;;;;9.88;7.55;;;;;;;24.06;49.35;95168.13;4194029;28;20251;-76
2023/09/07 08:43:14;;;;;;;9.50;7.10;;;;;;;23.80;49.14;95172.88;4183065;28;20132;-76
2023/09/07 08:45:18;;;;;;;9.70;6.70;;;;;;;23.46;49.50;95166.38;4186463;28;20097;-75
2023/09/07 08:47:20;;;;;;;7.63;6.85;;;;;;;23.55;49.97;95167.66;4177893;28;20234;-75
2023/09/07 08:49:24;;;;;;;8.40;6.57;;;;;;;23.69;50.04;95163.75;4170739;28;20060;-76
2023/09/07 08:51:27;;;;;;;16.35;8.38;;;;;;;23.90;49.77;95162.44;4155930;28;20046;-78
2023/09/07 08:53:31;;;;;;;10.57;8.02;;;;;;;23.96;49.29;95163.34;4184475;28;20051;-77
2023/09/07 08:55:33;;;;;;;10.18;7.55;;;;;;;23.98;49.11;95155.09;4194194;28;20044;-77
2023/09/07 08:57:35;;;;;;;10.45;7.43;;;;;;;24.08;49.16;95160.69;4190199;28;20420;-77
2023/09/07 08:59:36;;;;;;;9.52;6.82;;;;;;;24.19;48.26;95159.06;4170481;28;20045;-77
2023/09/07 09:01:39;;;;;;;9.52;6.85;;;;;;;23.99;47.71;95160.22;4193242;28;20059;-79
2023/09/07 09:03:42;;;;;;;11.50;7.63;;;;;;;24.02;48.37;95159.75;4174237;28;20061;-76
2023/09/07 09:05:44;;;;;;;;;;;;;;;24.00;47.80;95156.50;4176309;28;20535;-77
2023/09/07 09:07:46;;;;;;;10.27;6.72;;;;;;;24.12;47.73;95160.00;4186296;28;19921;-76
2023/09/07 09:09:48;;;;;;;8.77;6.30;;;;;;;24.21;47.31;95156.97;4209169;28;20076;-74
2023/09/07 09:11:50;;;;;;;9.82;6.57;;;;;;;24.17;47.26;95158.47;4191411;28;20415;-76
2023/09/07 09:13:54;;;;;;;15.90;7.35;;;;;;;24.15;47.08;95150.69;4184768;28;20055;-77
2023/09/07 09:15:55;;;;;;;;;;;;;;;24.11;46.57;95149.50;4184153;28;20049;-77
2023/09/07 09:17:57;;;;;;;10.85;6.00;;;;;;;23.78;47.32;95150.09;4179882;28;20034;-77
2023/09/07 09:19:59;;;;;;;8.18;6.28;;;;;;;23.68;47.28;95150.59;4193384;28;20132;-75
2023/09/07 09:22:03;;;;;;;11.45;6.80;;;;;;;23.68;47.39;95156.78;4186904;28;20053;-77
2023/09/07 09:24:10;;;;;;;7.40;5.70;;;;;;;23.69;46.56;95147.69;4184049;28;20399;-76
2023/09/07 09:26:12;;;;;;;11.38;6.35;;;;;;;23.82;46.76;95153.94;4192508;28;20108;-76
2023/09/07 09:28:14;;;;;;;9.10;5.78;;;;;;;24.07;46.01;95146.50;4193053;28;20385;-75